Time;durP1;ratioP1;P1;durP2;ratioP2;P2;SDS_P1;SDS_P2;PMS_P1;PMS_P2;Temp;Humidity;BMP_temperature;BMP_pressure;BME280_temperature;BME280_humidity;BME280_pressure;Samples;Min_cycle;Max_cycle;Signal;HPM_P1;HPM_P2
2021/07/13 00:01:15;;;;;;;;;;;;;;;21.59;60.33;100585.38;5139999;27;795;-42
2021/07/13 00:03:40;;;;;;;;;;;;;;;21.39;60.23;100585.78;5146591;27;1045;-45
2021/07/13 00:06:06;;;;;;;;;;;;;;;21.06;60.19;100583.19;5160426;27;1913;-42
2021/07/13 00:08:31;;;;;;;;;;;;;;;20.43;59.50;100586.31;5160750;27;746;-43
2021/07/13 00:10:56;;;;;;;;;;;;;;;20.15;59.45;100590.97;5160390;27;807;-44
2021/07/13 00:13:22;;;;;;;;;;;;;;;20.48;57.39;100590.91;5159887;27;814;-42
2021/07/13 00:15:47;;;;;;;;;;;;;;;20.55;56.85;100596.03;5160583;27;839;-42
2021/07/13 00:18:13;;;;;;;;;;;;;;;20.79;56.90;100579.31;5160168;27;810;-42
2021/07/13 00:20:38;;;;;;;;;;;;;;;21.12;56.44;100580.00;5159834;27;1007;-42
2021/07/13 00:23:04;;;;;;;;;;;;;;;21.06;57.10;100580.44;5160307;27;763;-42
2021/07/13 00:25:29;;;;;;;;;;;;;;;20.98;57.64;100577.25;5159873;27;1909;-44
2021/07/13 00:27:55;;;;;;;;;;;;;;;21.04;57.82;100575.19;5159921;27;839;-42
2021/07/13 00:30:20;;;;;;;;;;;;;;;21.36;56.82;100576.16;5141223;27;773;-43
2021/07/13 00:32:46;;;;;;;;;;;;;;;21.26;57.30;100573.63;5159887;27;818;-42
2021/07/13 00:35:11;;;;;;;;;;;;;;;21.59;56.25;100584.53;5159515;27;945;-42
2021/07/13 00:37:37;;;;;;;;;;;;;;;21.48;56.84;100573.69;5159849;27;823;-42
2021/07/13 00:40:06;;;;;;;;;;;;;;;21.39;57.20;100578.31;5160408;27;804;-43
2021/07/13 00:42:31;;;;;;;;;;;;;;;21.55;56.74;100578.81;5159799;27;774;-43
2021/07/13 00:44:56;;;;;;;;;;;;;;;21.16;57.77;100586.53;5159755;27;1963;-42
2021/07/13 00:47:22;;;;;;;;;;;;;;;20.99;58.60;100584.41;5159893;27;769;-42
2021/07/13 00:49:48;;;;;;;;;;;;;;;20.72;58.55;100588.03;5159203;27;1016;-42
2021/07/13 00:52:13;;;;;;;;;;;;;;;20.58;59.35;100590.75;5159615;27;778;-42
2021/07/13 00:54:39;;;;;;;;;;;;;;;20.92;59.58;100592.31;5159421;27;870;-44
2021/07/13 00:57:11;;;;;;;;;;;;;;;21.04;58.87;100586.25;5141056;27;768;-42
2021/07/13 00:59:36;;;;;;;;;;;;;;;20.83;57.73;100591.38;5141638;27;771;-41
2021/07/13 01:02:02;;;;;;;;;;;;;;;20.77;56.16;100593.44;5159720;27;731;-42
2021/07/13 01:04:28;;;;;;;;;;;;;;;20.83;53.83;100592.22;5152450;27;1913;-42
2021/07/13 01:07:13;;;;;;;;;;;;;;;20.65;52.82;100596.69;5138625;27;850;-42
2021/07/13 01:09:53;;;;;;;;;;;;;;;20.49;53.10;100587.03;5138043;27;1345;-42
2021/07/13 01:12:23;;;;;;;;;;;;;;;20.47;54.07;100589.28;5138747;27;783;-44
2021/07/13 01:14:51;;;;;;;;;;;;;;;20.81;54.13;100590.88;5120120;27;818;-42
2021/07/13 01:17:18;;;;;;;;;;;;;;;21.06;54.64;100578.47;5138174;27;781;-44
2021/07/13 01:19:53;;;;;;;;;;;;;;;21.11;56.21;100586.69;5119517;27;970;-42
2021/07/13 01:22:28;;;;;;;;;;;;;;;21.13;57.22;100584.41;5138322;27;971;-45
2021/07/13 01:24:57;;;;;;;;;;;;;;;21.25;57.95;100577.53;5138254;27;1968;-43
2021/07/13 01:27:41;;;;;;;;;;;;;;;21.09;59.02;100583.38;5119782;27;794;-43
2021/07/13 01:30:10;;;;;;;;;;;;;;;20.82;60.60;100585.03;5137984;27;759;-43
2021/07/13 01:32:36;;;;;;;;;;;;;;;20.65;59.54;100590.31;5138359;27;889;-42
2021/07/13 01:35:03;;;;;;;;;;;;;;;20.71;60.72;100578.09;5137312;27;1008;-43
2021/07/13 01:37:30;;;;;;;;;;;;;;;20.99;61.53;100580.84;5138284;27;771;-42
2021/07/13 01:39:55;;;;;;;;;;;;;;;21.31;60.34;100585.41;5120119;27;819;-42
2021/07/13 01:42:21;;;;;;;;;;;;;;;21.45;59.87;100585.38;5137972;27;806;-42
2021/07/13 01:44:47;;;;;;;;;;;;;;;21.57;59.64;100584.03;5119002;27;1910;-42
2021/07/13 01:47:12;;;;;;;;;;;;;;;21.16;61.08;100582.97;5137963;27;775;-44
2021/07/13 01:49:38;;;;;;;;;;;;;;;20.82;61.01;100584.25;5137383;27;961;-42
2021/07/13 01:52:03;;;;;;;;;;;;;;;20.00;60.42;100581.78;5119636;27;819;-43
2021/07/13 01:54:29;;;;;;;;;;;;;;;20.39;59.47;100584.47;5119523;27;779;-44
2021/07/13 01:56:56;;;;;;;;;;;;;;;20.50;57.70;100589.50;5119214;27;795;-43
2021/07/13 01:59:22;;;;;;;;;;;;;;;20.63;57.62;100595.34;5137783;27;771;-42
2021/07/13 02:01:47;;;;;;;;;;;;;;;20.67;57.86;100594.44;5119570;27;847;-42
2021/07/13 02:04:13;;;;;;;;;;;;;;;21.06;57.95;100586.78;5126787;27;1003;-45
2021/07/13 02:06:38;;;;;;;;;;;;;;;21.27;58.39;100589.13;5137404;27;1902;-42
2021/07/13 02:09:07;;;;;;;;;;;;;;;21.39;58.57;100586.59;5119009;28;763;-42
2021/07/13 02:11:32;;;;;;;;;;;;;;;21.51;58.80;100595.19;5137103;27;779;-43
2021/07/13 02:13:58;;;;;;;;;;;;;;;20.95;60.90;100599.19;5136302;27;986;-42
2021/07/13 02:16:23;;;;;;;;;;;;;;;20.90;61.51;100597.34;5137584;27;751;-43
2021/07/13 02:18:49;;;;;;;;;;;;;;;20.55;59.58;100601.56;5136670;27;1012;-45
2021/07/13 02:21:15;;;;;;;;;;;;;;;20.91;61.52;100600.91;5137328;28;787;-44
2021/07/13 02:23:41;;;;;;;;;;;;;;;21.06;61.76;100603.38;5137620;28;826;-43
2021/07/13 02:26:06;;;;;;;;;;;;;;;21.39;60.66;100600.44;5136910;28;1973;-43
2021/07/13 02:28:35;;;;;;;;;;;;;;;21.65;59.80;100600.72;5137556;28;747;-43
2021/07/13 02:31:02;;;;;;;;;;;;;;;21.62;60.18;100589.47;5137568;28;827;-43
2021/07/13 02:33:28;;;;;;;;;;;;;;;21.03;60.61;100592.94;5136198;28;941;-43
2021/07/13 02:35:55;;;;;;;;;;;;;;;20.45;61.17;100592.34;5137290;28;802;-43
2021/07/13 02:38:20;;;;;;;;;;;;;;;19.87;58.94;100582.59;5137282;28;858;-43
2021/07/13 02:40:47;;;;;;;;;;;;;;;20.37;57.70;100590.31;5118549;28;952;-43
2021/07/13 02:43:12;;;;;;;;;;;;;;;20.49;56.87;100593.38;5137419;28;898;-44
2021/07/13 02:45:37;;;;;;;;;;;;;;;20.85;56.35;100597.44;5137142;28;1913;-44
2021/07/13 02:48:03;;;;;;;;;;;;;;;20.95;56.72;100594.44;5136641;28;851;-46
2021/07/13 02:50:29;;;;;;;;;;;;;;;21.06;56.89;100595.06;5137194;28;1012;-43
2021/07/13 02:52:54;;;;;;;;;;;;;;;21.16;56.99;100589.31;5137517;28;747;-42
2021/07/13 02:55:21;;;;;;;;;;;;;;;21.11;57.29;100594.13;5118522;28;764;-43
2021/07/13 02:57:46;;;;;;;;;;;;;;;21.08;57.62;100589.22;5118351;28;937;-43
2021/07/13 03:00:12;;;;;;;;;;;;;;;21.35;57.02;100589.19;5136934;28;767;-44
2021/07/13 03:02:38;;;;;;;;;;;;;;;21.32;57.35;100591.75;5137092;28;779;-44
2021/07/13 03:05:04;;;;;;;;;;;;;;;21.58;56.55;100586.50;5154958;27;1956;-42
2021/07/13 03:07:31;;;;;;;;;;;;;;;21.50;56.94;100590.81;5138999;27;814;-43
2021/07/13 03:09:56;;;;;;;;;;;;;;;21.63;56.93;100591.06;5139596;27;786;-42
2021/07/13 03:12:22;;;;;;;;;;;;;;;21.05;58.53;100587.09;5139169;27;756;-42
2021/07/13 03:14:47;;;;;;;;;;;;;;;20.70;59.94;100597.72;5157613;27;803;-44
2021/07/13 03:17:13;;;;;;;;;;;;;;;20.68;58.66;100593.31;5138681;27;791;-44
2021/07/13 03:19:39;;;;;;;;;;;;;;;20.54;60.51;100588.88;5138833;27;1313;-43
2021/07/13 03:22:05;;;;;;;;;;;;;;;20.96;59.27;100595.28;5157901;27;806;-44
2021/07/13 03:24:30;;;;;;;;;;;;;;;21.02;58.99;100588.53;5140154;27;1909;-42
2021/07/13 03:26:56;;;;;;;;;;;;;;;21.23;58.26;100588.91;5142398;27;902;-43
2021/07/13 03:29:21;;;;;;;;;;;;;;;21.18;58.39;100584.31;5142315;27;899;-43
2021/07/13 03:31:47;;;;;;;;;;;;;;;21.37;57.93;100583.34;5142350;27;879;-44
2021/07/13 03:34:12;;;;;;;;;;;;;;;21.24;58.85;100589.72;5142183;27;1032;-43
2021/07/13 03:36:38;;;;;;;;;;;;;;;20.91;59.45;100581.56;5160881;27;791;-45
2021/07/13 03:39:03;;;;;;;;;;;;;;;21.09;59.54;100588.09;5120597;27;959;-65
2021/07/13 03:41:29;;;;;;;;;;;;;;;21.44;56.49;100592.03;5140589;27;754;-67
2021/07/13 03:43:59;;;;;;;;;;;;;;;21.49;56.99;100591.91;5122253;27;854;-69
2021/07/13 03:46:24;;;;;;;;;;;;;;;21.82;57.73;100599.22;5120952;27;1917;-66
2021/07/13 03:48:50;;;;;;;;;;;;;;;22.03;57.32;100600.38;5144312;27;986;-68
2021/07/13 03:51:25;;;;;;;;;;;;;;;22.28;56.91;100605.56;5124307;27;953;-63
2021/07/13 03:53:51;;;;;;;;;;;;;;;22.36;56.87;100597.34;5142339;27;755;-65
2021/07/13 03:56:16;;;;;;;;;;;;;;;22.11;57.84;100596.00;5141748;27;815;-67
2021/07/13 03:58:42;;;;;;;;;;;;;;;22.13;57.64;100607.59;5124689;27;971;-65
2021/07/13 04:01:07;;;;;;;;;;;;;;;21.86;55.88;100600.22;5160455;27;814;-62
2021/07/13 04:03:33;;;;;;;;;;;;;;;21.87;58.25;100601.88;5176054;27;1442;-65
2021/07/13 04:05:58;;;;;;;;;;;;;;;22.03;59.08;100607.84;5169941;27;1980;-64
2021/07/13 04:08:23;;;;;;;;;;;;;;;22.28;58.35;100605.56;5141988;27;739;-65
2021/07/13 04:10:49;;;;;;;;;;;;;;;22.29;58.39;100602.47;5142076;27;815;-65
2021/07/13 04:13:14;;;;;;;;;;;;;;;22.11;59.03;100615.41;5160636;27;751;-64
2021/07/13 04:15:40;;;;;;;;;;;;;;;22.09;58.38;100608.53;5160266;27;750;-65
2021/07/13 04:18:06;;;;;;;;;;;;;;;21.82;56.29;100610.28;5141193;27;924;-63
2021/07/13 04:20:32;;;;;;;;;;;;;;;21.93;59.05;100599.81;5141098;27;958;-64
2021/07/13 04:22:57;;;;;;;;;;;;;;;22.11;59.47;100596.00;5160318;27;822;-65
2021/07/13 04:25:23;;;;;;;;;;;;;;;22.33;58.80;100592.44;5160027;27;1909;-65
2021/07/13 04:27:48;;;;;;;;;;;;;;;22.43;58.39;100599.66;5159997;27;811;-62
2021/07/13 04:30:14;;;;;;;;;;;;;;;22.24;58.94;100599.84;5160093;27;858;-65
2021/07/13 04:32:39;;;;;;;;;;;;;;;22.27;59.01;100598.38;5141607;27;827;-64
2021/07/13 04:35:05;;;;;;;;;;;;;;;22.07;57.10;100600.53;5159391;27;977;-65
2021/07/13 04:37:32;;;;;;;;;;;;;;;21.92;57.50;100600.91;5160211;27;842;-66
2021/07/13 04:39:57;;;;;;;;;;;;;;;22.04;60.17;100601.19;5160516;27;751;-66
2021/07/13 04:42:23;;;;;;;;;;;;;;;22.28;59.66;100594.50;5159841;27;739;-66
2021/07/13 04:44:48;;;;;;;;;;;;;;;22.36;58.51;100591.00;5141748;27;1974;-64
2021/07/13 04:47:14;;;;;;;;;;;;;;;22.11;59.49;100596.00;5158922;27;767;-64
2021/07/13 04:49:39;;;;;;;;;;;;;;;22.17;60.09;100597.50;5159464;27;949;-64
2021/07/13 04:52:05;;;;;;;;;;;;;;;22.02;57.81;100598.72;5159916;27;739;-63
2021/07/13 04:54:33;;;;;;;;;;;;;;;21.92;56.83;100598.97;5159108;27;794;-67
2021/07/13 04:56:59;;;;;;;;;;;;;;;22.04;60.16;100599.22;5159705;27;790;-66
2021/07/13 04:59:25;;;;;;;;;;;;;;;22.13;62.48;100604.84;5159402;27;751;-64
2021/07/13 05:01:50;;;;;;;;;;;;;;;22.37;62.07;100601.75;5159114;27;778;-70
2021/07/13 05:04:16;;;;;;;;;;;;;;;22.42;61.21;100602.75;5159018;27;1021;-65
2021/07/13 05:06:41;;;;;;;;;;;;;;;22.40;61.04;100603.06;5159268;27;1913;-64
2021/07/13 05:09:06;;;;;;;;;;;;;;;22.28;59.47;100606.38;5139956;27;835;-65
2021/07/13 05:11:33;;;;;;;;;;;;;;;21.91;55.77;100607.59;5159506;27;790;-65
2021/07/13 05:14:00;;;;;;;;;;;;;;;22.02;57.91;100608.97;5140889;27;802;-63
2021/07/13 05:16:26;;;;;;;;;;;;;;;22.12;59.45;100614.28;5158988;27;786;-63
2021/07/13 05:18:51;;;;;;;;;;;;;;;22.21;58.66;100606.81;5135655;27;1001;-64
2021/07/13 05:21:16;;;;;;;;;;;;;;;22.30;57.64;100611.59;5138098;27;798;-64
2021/07/13 05:23:42;;;;;;;;;;;;;;;22.35;56.69;100611.50;5138280;27;723;-65
2021/07/13 05:26:07;;;;;;;;;;;;;;;22.40;56.06;100614.16;5138282;27;1984;-64
2021/07/13 05:28:33;;;;;;;;;;;;;;;22.42;55.52;100617.41;5138211;27;735;-63
2021/07/13 05:30:58;;;;;;;;;;;;;;;22.13;56.05;100624.22;5102879;27;840;-65
2021/07/13 05:33:24;;;;;;;;;;;;;;;22.08;55.99;100624.34;5137864;27;942;-62
2021/07/13 05:35:49;;;;;;;;;;;;;;;21.78;54.73;100625.88;5158512;27;993;-65
2021/07/13 05:38:14;;;;;;;;;;;;;;;21.96;56.12;100629.63;5158385;27;806;-64
2021/07/13 05:40:43;;;;;;;;;;;;;;;22.06;55.39;100626.59;5158980;27;727;-63
2021/07/13 05:43:08;;;;;;;;;;;;;;;22.22;54.71;100630.63;5139595;27;884;-64
2021/07/13 05:45:34;;;;;;;;;;;;;;;22.23;54.73;100636.97;5140167;27;1922;-64
2021/07/13 05:47:59;;;;;;;;;;;;;;;22.35;54.36;100631.69;5157730;27;743;-64
2021/07/13 05:50:24;;;;;;;;;;;;;;;22.38;54.21;100633.88;5158046;27;980;-67
2021/07/13 05:52:50;;;;;;;;;;;;;;;22.33;54.31;100630.34;5105639;27;865;-66
2021/07/13 05:55:15;;;;;;;;;;;;;;;22.04;55.08;100623.31;5158689;27;723;-64
2021/07/13 05:57:41;;;;;;;;;;;;;;;22.00;55.35;100633.41;5158337;27;846;-64
2021/07/13 06:00:07;;;;;;;;;;;;;;;21.69;54.54;100629.38;5157933;27;819;-64
2021/07/13 06:02:39;;;;;;;;;;;;;;;21.88;55.84;100631.16;5158784;27;648;-63
2021/07/13 06:05:05;;;;;;;;;;;;;;;22.02;55.20;100622.81;5158046;27;1984;-63
2021/07/13 06:07:31;;;;;;;;;;;;;;;22.18;54.59;100626.03;5139855;27;936;-62
2021/07/13 06:09:57;;;;;;;;;;;;;;;22.25;54.39;100623.63;5158225;27;787;-63
2021/07/13 06:12:22;;;;;;;;;;;;;;;22.31;54.22;100621.56;5139173;27;1126;-62
2021/07/13 06:14:48;;;;;;;;;;;;;;;22.35;53.94;100625.34;5158154;27;806;-66
2021/07/13 06:17:13;;;;;;;;;;;;;;;22.34;54.17;100615.41;5139413;27;854;-62
2021/07/13 06:19:38;;;;;;;;;;;;;;;22.28;54.54;100613.88;5157637;27;1048;-63
2021/07/13 06:22:04;;;;;;;;;;;;;;;22.15;54.91;100616.41;5157527;27;783;-63
2021/07/13 06:24:29;;;;;;;;;;;;;;;22.13;54.98;100617.84;5158014;27;866;-63
2021/07/13 06:26:55;;;;;;;;;;;;;;;21.85;53.52;100604.97;5138416;27;1909;-63
2021/07/13 06:29:20;;;;;;;;;;;;;;;21.86;55.93;100612.09;5138903;27;873;-62
2021/07/13 06:31:45;;;;;;;;;;;;;;;21.99;55.70;100609.59;5121559;27;815;-61
2021/07/13 06:34:11;;;;;;;;;;;;;;;22.18;54.94;100604.69;5149995;27;1015;-63
2021/07/13 06:36:37;;;;;;;;;;;;;;;22.28;54.74;100606.38;5137038;28;799;-62
2021/07/13 06:39:02;;;;;;;;;;;;;;;22.39;54.24;100606.97;5118550;28;874;-61
2021/07/13 06:41:28;;;;;;;;;;;;;;;22.42;54.21;100605.53;5137245;28;815;-61
2021/07/13 06:43:53;;;;;;;;;;;;;;;22.24;54.94;100607.34;5137050;28;886;-60
2021/07/13 06:46:18;;;;;;;;;;;;;;;22.20;55.15;100604.38;5136925;28;1918;-62
2021/07/13 06:48:44;;;;;;;;;;;;;;;21.88;53.93;100600.72;5118410;28;1028;-61
2021/07/13 06:51:09;;;;;;;;;;;;;;;21.84;56.04;100606.09;5136664;28;771;-61
2021/07/13 06:53:35;;;;;;;;;;;;;;;21.99;56.07;100602.13;5137009;28;752;-63
2021/07/13 06:56:00;;;;;;;;;;;;;;;22.18;55.14;100595.56;5137187;28;767;-61
2021/07/13 06:58:26;;;;;;;;;;;;;;;22.27;54.94;100601.16;5137729;27;850;-63
2021/07/13 07:00:51;;;;;;;;;;;;;;;22.36;54.58;100593.75;5140802;27;846;-60
2021/07/13 07:03:16;;;;;;;;;;;;;;;22.35;54.69;100590.16;5140869;27;1069;-61
2021/07/13 07:05:43;;;;;;;;;;;;;;;22.14;55.38;100589.84;5156935;27;1921;-60
2021/07/13 07:08:08;;;;;;;;;;;;;;;22.07;55.22;100585.88;5142380;27;1086;-63
2021/07/13 07:10:35;;;;;;;;;;;;;;;21.74;53.34;100592.50;5160355;27;1212;-61
2021/07/13 07:13:00;;;;;;;;;;;;;;;21.85;56.43;100582.81;5161693;27;747;-63
2021/07/13 07:15:28;;;;;;;;;;;;;;;21.96;56.33;100588.91;5161496;27;779;-61
2021/07/13 07:17:53;;;;;;;;;;;;;;;22.14;55.80;100584.28;5161119;27;861;-60
2021/07/13 07:20:22;;;;;;;;;;;;;;;22.23;55.33;100587.13;5143754;27;959;-64
2021/07/13 07:22:48;;;;;;;;;;;;;;;22.40;54.99;100578.13;5121719;27;1252;-66
2021/07/13 07:25:13;;;;;;;;;;;;;;;22.35;55.11;100579.06;5140678;27;1917;-65
2021/07/13 07:27:39;;;;;;;;;;;;;;;22.44;54.86;100578.31;5122262;27;886;-65
2021/07/13 07:30:08;;;;;;;;;;;;;;;22.25;55.74;100573.78;5104561;27;989;-65
2021/07/13 07:32:37;;;;;;;;;;;;;;;22.27;55.73;100576.22;5140527;27;886;-64
2021/07/13 07:35:02;;;;;;;;;;;;;;;21.93;53.94;100580.41;5140431;27;966;-64
2021/07/13 07:37:28;;;;;;;;;;;;;;;21.91;56.36;100572.44;5140123;27;755;-63
2021/07/13 07:39:53;;;;;;;;;;;;;;;22.04;56.72;100568.75;5140341;27;779;-64
2021/07/13 07:42:19;;;;;;;;;;;;;;;22.17;56.29;100578.13;5121518;27;809;-64
2021/07/13 07:44:44;;;;;;;;;;;;;;;22.30;55.79;100570.88;5139973;27;1914;-63
2021/07/13 07:47:10;;;;;;;;;;;;;;;22.40;55.51;100580.91;5121901;27;814;-64
2021/07/13 07:49:35;;;;;;;;;;;;;;;22.41;55.25;100576.16;5139736;27;1012;-64
2021/07/13 07:52:01;;;;;;;;;;;;;;;22.25;55.78;100573.78;5139597;27;811;-64
2021/07/13 07:54:26;;;;;;;;;;;;;;;22.24;55.67;100574.09;5139773;27;791;-63
2021/07/13 07:56:52;;;;;;;;;;;;;;;21.88;53.62;100576.66;5139955;27;778;-67
2021/07/13 07:59:19;;;;;;;;;;;;;;;21.94;56.25;100582.06;5139591;27;791;-67
2021/07/13 08:01:45;;;;;;;;;;;;;;;22.11;56.84;100579.41;5104305;27;829;-64
2021/07/13 08:04:10;;;;;;;;;;;;;;;22.29;56.20;100573.97;5142512;27;1010;-69
2021/07/13 08:06:36;;;;;;;;;;;;;;;22.36;55.77;100574.38;5140459;27;1965;-64
2021/07/13 08:09:01;;;;;;;;;;;;;;;22.31;55.97;100571.69;5160394;27;742;-67
2021/07/13 08:11:26;;;;;;;;;;;;;;;22.28;56.12;100580.63;5157132;27;956;-67
2021/07/13 08:13:52;;;;;;;;;;;;;;;22.09;55.28;100576.13;5141355;27;763;-64
2021/07/13 08:16:17;;;;;;;;;;;;;;;21.78;54.09;100578.84;5160328;27;739;-64
2021/07/13 08:18:43;;;;;;;;;;;;;;;22.01;56.74;100579.66;5140637;27;1195;-65
2021/07/13 08:21:08;;;;;;;;;;;;;;;22.17;56.63;100580.88;5157763;27;878;-65
2021/07/13 08:23:34;;;;;;;;;;;;;;;22.28;56.08;100580.63;5159910;27;874;-67
2021/07/13 08:25:59;;;;;;;;;;;;;;;22.32;55.72;100578.88;5158055;27;1905;-66
2021/07/13 08:28:25;;;;;;;;;;;;;;;22.43;55.45;100583.03;5151522;27;894;-67
2021/07/13 08:30:50;;;;;;;;;;;;;;;22.27;55.77;100576.22;5118739;27;856;-67
2021/07/13 08:33:16;;;;;;;;;;;;;;;22.16;56.38;100572.91;5147612;27;1176;-66
2021/07/13 08:35:41;;;;;;;;;;;;;;;22.05;55.02;100577.91;5131344;27;1061;-66
2021/07/13 08:38:06;;;;;;;;;;;;;;;21.86;55.19;100573.34;5129277;27;1282;-67
2021/07/13 08:40:32;;;;;;;;;;;;;;;21.99;57.03;100577.22;5114721;27;1187;-66
2021/07/13 08:42:58;;;;;;;;;;;;;;;22.26;56.10;100572.66;5131121;27;918;-65
2021/07/13 08:45:24;;;;;;;;;;;;;;;22.31;55.74;100569.72;5132813;27;1980;-65
2021/07/13 08:47:50;;;;;;;;;;;;;;;22.48;55.39;100571.81;5124317;27;1157;-66
2021/07/13 08:50:16;;;;;;;;;;;;;;;22.33;55.92;100575.81;5144189;27;956;-67
2021/07/13 08:52:41;;;;;;;;;;;;;;;22.27;56.14;100574.25;5111278;27;1470;-67
2021/07/13 08:55:07;;;;;;;;;;;;;;;21.97;54.22;100573.13;5147614;27;878;-67
2021/07/13 08:57:32;;;;;;;;;;;;;;;21.93;56.03;100575.69;5114111;27;1204;-67
2021/07/13 08:59:58;;;;;;;;;;;;;;;21.99;57.02;100555.06;5132075;27;848;-67
2021/07/13 09:02:23;;;;;;;;;;;;;;;22.22;56.45;100575.22;5144676;27;882;-67
2021/07/13 09:04:49;;;;;;;;;;;;;;;22.35;55.94;100578.25;5113695;27;1905;-67
2021/07/13 09:07:18;;;;;;;;;;;;;;;22.37;55.55;100573.22;5115944;27;1164;-67
2021/07/13 09:09:52;;;;;;;;;;;;;;;22.26;56.03;100577.34;5131478;27;887;-66
2021/07/13 09:12:22;;;;;;;;;;;;;;;22.22;55.72;100580.75;5130989;27;902;-66
2021/07/13 09:14:51;;;;;;;;;;;;;;;21.77;53.72;100580.78;5146844;27;911;-66
2021/07/13 09:17:32;;;;;;;;;;;;;;;21.94;56.84;100582.06;5119185;27;912;-65
2021/07/13 09:19:58;;;;;;;;;;;;;;;22.09;58.78;100578.91;5145082;27;882;-66
2021/07/13 09:22:23;;;;;;;;;;;;;;;22.43;59.10;100568.34;5150500;27;886;-66
2021/07/13 09:24:49;;;;;;;;;;;;;;;22.51;59.39;100576.72;5131094;27;1917;-65
2021/07/13 09:27:17;;;;;;;;;;;;;;;22.50;60.07;100574.28;5146573;27;870;-65
2021/07/13 09:29:42;;;;;;;;;;;;;;;22.22;56.86;100569.69;5112897;27;1236;-65
2021/07/13 09:32:26;;;;;;;;;;;;;;;22.01;55.49;100574.94;5130348;27;920;-66
2021/07/13 09:35:01;;;;;;;;;;;;;;;22.17;56.51;100575.34;5129406;27;1169;-66
2021/07/13 09:37:29;;;;;;;;;;;;;;;22.14;55.24;100573.22;5147457;27;878;-65
2021/07/13 09:39:57;;;;;;;;;;;;;;;22.00;53.58;100566.94;5148583;27;1052;-63
2021/07/13 09:42:24;;;;;;;;;;;;;;;21.99;51.46;100576.38;5149189;27;929;-65
2021/07/13 09:44:49;;;;;;;;;;;;;;;21.91;50.60;100568.84;5151201;27;1913;-62
2021/07/13 09:47:30;;;;;;;;;;;;;;;21.88;51.02;100554.50;5137246;27;1048;-65
2021/07/13 09:49:58;;;;;;;;;;;;;;;22.22;53.58;100555.84;5148829;27;972;-63
2021/07/13 09:52:24;;;;;;;;;;;;;;;22.42;56.37;100552.88;5155610;27;870;-65
2021/07/13 09:54:50;;;;;;;;;;;;;;;22.43;58.68;100558.09;5140449;27;814;-66
2021/07/13 09:57:26;;;;;;;;;;;;;;;22.49;59.88;100556.81;5151071;27;910;-63
2021/07/13 09:59:53;;;;;;;;;;;;;;;22.12;57.36;100539.50;5154761;27;929;-64
2021/07/13 10:02:20;;;;;;;;;;;;;;;21.91;56.19;100555.81;5154251;27;1173;-63
2021/07/13 10:04:49;;;;;;;;;;;;;;;22.09;57.07;100558.69;5155585;27;1971;-64
2021/07/13 10:07:15;;;;;;;;;;;;;;;22.03;56.47;100555.22;5155589;27;898;-65
2021/07/13 10:09:42;;;;;;;;;;;;;;;21.95;55.16;100556.84;5137754;27;902;-66
2021/07/13 10:12:09;;;;;;;;;;;;;;;22.03;52.35;100566.31;5154697;27;999;-70
2021/07/13 10:14:36;;;;;;;;;;;;;;;22.01;50.90;100563.06;5157892;27;775;-63
2021/07/13 10:17:02;;;;;;;;;;;;;;;21.94;50.84;100560.72;5154871;27;822;-62
2021/07/13 10:19:27;;;;;;;;;;;;;;;22.05;51.26;100555.75;5157238;27;992;-62
2021/07/13 10:21:53;;;;;;;;;;;;;;;22.14;52.22;100562.13;5139716;27;847;-61
2021/07/13 10:24:23;;;;;;;;;;;;;;;22.29;52.71;100552.63;5140013;27;815;-63
2021/07/13 10:26:52;;;;;;;;;;;;;;;22.25;53.78;100561.91;5138967;27;1976;-63
2021/07/13 10:29:32;;;;;;;;;;;;;;;22.12;54.62;100558.88;5153521;27;853;-62
2021/07/13 10:31:58;;;;;;;;;;;;;;;22.09;55.31;100559.53;5157893;27;755;-63
2021/07/13 10:34:42;;;;;;;;;;;;;;;22.00;54.27;100556.69;5159890;27;941;-61
2021/07/13 10:37:24;;;;;;;;;;;;;;;21.81;54.86;100548.59;5162223;27;762;-62
2021/07/13 10:39:49;;;;;;;;;;;;;;;21.92;56.88;100545.56;5159622;27;890;-65
2021/07/13 10:42:33;;;;;;;;;;;;;;;22.15;56.15;100546.38;5156482;27;803;-67
2021/07/13 10:45:10;;;;;;;;;;;;;;;22.29;55.63;100546.28;5160148;27;1913;-65
2021/07/13 10:47:35;;;;;;;;;;;;;;;22.41;55.31;100549.28;5141308;27;922;-64
2021/07/13 10:50:16;;;;;;;;;;;;;;;22.27;55.82;100552.09;5145592;27;922;-63
2021/07/13 10:53:00;;;;;;;;;;;;;;;22.22;56.16;100546.72;5132950;27;934;-62
2021/07/13 10:55:31;;;;;;;;;;;;;;;21.93;54.05;100545.25;5158299;27;902;-68
2021/07/13 10:58:17;;;;;;;;;;;;;;;21.79;56.49;100545.31;5159848;27;874;-64
2021/07/13 11:00:58;;;;;;;;;;;;;;;22.02;57.25;100542.53;5145678;27;1208;-66
2021/07/13 11:03:32;;;;;;;;;;;;;;;22.22;56.78;100530.09;5160402;27;1219;-65
2021/07/13 11:05:58;;;;;;;;;;;;;;;22.34;56.18;100532.31;5123888;27;1909;-65
2021/07/13 11:08:39;;;;;;;;;;;;;;;22.26;56.48;100533.88;5141385;27;1013;-63
2021/07/13 11:11:27;;;;;;;;;;;;;;;22.25;56.08;100529.47;5140279;27;961;-63
2021/07/13 11:13:52;;;;;;;;;;;;;;;21.86;54.00;100531.84;5127482;27;1143;-62
2021/07/13 11:16:21;;;;;;;;;;;;;;;21.99;57.19;100532.91;5156304;27;860;-64
2021/07/13 11:18:47;;;;;;;;;;;;;;;22.14;57.21;100522.56;5136758;27;887;-62
2021/07/13 11:21:18;;;;;;;;;;;;;;;22.27;56.42;100529.94;5156713;27;951;-61
2021/07/13 11:23:48;;;;;;;;;;;;;;;22.29;56.45;100526.88;5154079;27;874;-62
2021/07/13 11:26:14;;;;;;;;;;;;;;;22.24;56.71;100527.03;5141071;27;1979;-64
2021/07/13 11:28:49;;;;;;;;;;;;;;;22.18;55.90;100523.56;5139398;27;942;-64
2021/07/13 11:31:21;;;;;;;;;;;;;;;21.79;53.78;100528.69;5159391;27;1034;-63
2021/07/13 11:33:53;;;;;;;;;;;;;;;21.93;57.01;100523.09;5136620;27;1053;-64
2021/07/13 11:36:40;;;;;;;;;;;;;;;22.09;57.56;100525.47;5123191;27;923;-64
2021/07/13 11:39:06;;;;;;;;;;;;;;;22.24;56.94;100516.75;5121392;27;940;-63
2021/07/13 11:41:32;;;;;;;;;;;;;;;22.35;56.29;100522.88;5140171;27;790;-64
2021/07/13 11:43:58;;;;;;;;;;;;;;;22.26;56.75;100513.66;5144482;27;1061;-63
2021/07/13 11:46:27;;;;;;;;;;;;;;;22.36;56.55;100518.97;5156192;27;1943;-65
2021/07/13 11:48:58;;;;;;;;;;;;;;;22.12;54.81;100508.22;5139203;27;982;-64
2021/07/13 11:51:25;;;;;;;;;;;;;;;21.75;54.92;100513.06;5159594;27;925;-65
2021/07/13 11:54:13;;;;;;;;;;;;;;;21.96;57.85;100510.56;5161100;27;744;-65
2021/07/13 11:56:39;;;;;;;;;;;;;;;22.13;57.48;100516.22;5142600;27;2000;-67
2021/07/13 11:59:05;;;;;;;;;;;;;;;22.29;56.81;100513.03;5158031;27;870;-67
2021/07/13 12:01:31;;;;;;;;;;;;;;;22.28;56.76;100517.75;5137402;27;891;-63
2021/07/13 12:04:02;;;;;;;;;;;;;;;22.26;56.86;100524.72;5158646;27;1022;-63
2021/07/13 12:06:28;;;;;;;;;;;;;;;22.19;55.63;100520.47;5159817;27;1909;-63
2021/07/13 12:09:13;;;;;;;;;;;;;;;21.79;53.78;100512.09;5142127;27;774;-65
2021/07/13 12:11:43;;;;;;;;;;;;;;;22.03;57.26;100510.94;5158825;27;910;-64
2021/07/13 12:14:15;;;;;;;;;;;;;;;22.16;57.43;100515.59;5160081;27;771;-65
2021/07/13 12:16:41;;;;;;;;;;;;;;;22.28;57.00;100512.19;5159555;27;909;-64
2021/07/13 12:19:09;;;;;;;;;;;;;;;22.37;56.56;100518.63;5159799;27;925;-67
2021/07/13 12:21:38;;;;;;;;;;;;;;;22.26;56.61;100516.44;5160008;27;798;-64
2021/07/13 12:24:09;;;;;;;;;;;;;;;22.17;56.83;100511.66;5138889;27;880;-67
2021/07/13 12:26:34;;;;;;;;;;;;;;;21.92;54.74;100515.91;5140103;27;1922;-63
2021/07/13 12:29:03;;;;;;;;;;;;;;;21.79;56.44;100516.81;5159951;27;811;-66
2021/07/13 12:31:29;;;;;;;;;;;;;;;22.08;57.36;100513.59;5158203;27;800;-62
2021/07/13 12:33:55;;;;;;;;;;;;;;;22.17;57.03;100528.28;5154022;27;917;-66
2021/07/13 12:36:24;;;;;;;;;;;;;;;22.33;56.31;100528.72;5143519;27;926;-67
2021/07/13 12:38:50;;;;;;;;;;;;;;;22.36;56.19;100536.38;5157593;27;813;-67
2021/07/13 12:41:15;;;;;;;;;;;;;;;22.18;56.76;100538.22;5155917;27;886;-66
2021/07/13 12:43:40;;;;;;;;;;;;;;;22.19;56.60;100537.09;5159469;27;807;-65
2021/07/13 12:46:24;;;;;;;;;;;;;;;21.85;54.50;100527.47;5159262;27;1909;-63
2021/07/13 12:48:49;;;;;;;;;;;;;;;22.01;57.08;100529.84;5157572;27;885;-66
2021/07/13 12:51:21;;;;;;;;;;;;;;;22.16;56.92;100537.72;5158011;27;907;-64
2021/07/13 12:53:47;;;;;;;;;;;;;;;22.38;56.15;100533.28;5156859;27;949;-63
2021/07/13 12:56:12;;;;;;;;;;;;;;;22.25;56.32;100531.44;5140279;27;771;-65